Vanscoy, Canada
Current Conditions -  °F | °C
As of 9:00 PM on Tuesday 21 Oct 2014 (Local Time) from CYXE Reporting Station
Broken Clouds Broken Clouds  
Wind Chill: 52°   Ceiling: 24000
Heat Index: 52°   Visibility: 15mi
Dew Point: 39°   Wind: 10mph
Humidity: 62%   Direction: 320°NW
Pressure: 29.57"   Gusts: NA
Location:  52°N, 106.98°W
Report Text: CYXE 220300Z 32009KT 280V340 15SM SCT100 BKN240 11/04 A2957 RMK AC4CI1 SLP027 DENSITY ALT 1900FT
Loading
Personal Weather Stations






























Interactive Weather Map
Tropical Storm Tracking
New forecast layout! Learn more

10-Day Weather Forecast

Advertisements
Track Severe Weather on mobile